• Join FlightAware (Why Join?)
  • Login
  • US Flag 
12:03AM EDT


 

Airport Tracker/Info


-or-


 

Live Flight TrackerFlight Track Log ✈ GJS3707 ✈ 25-May-2013 ✈ KORD - KBOI

Flight Track Log - Related Links

Times and Time Zones

All times are in EDT time to prevent confusion due to time zone crossing. See the GJS3707 flight status page for this flight to view local times or setup timezone preferences in your user account.

Time Position Orientation Groundspeed Altitude Reporting Facility
EDT Latitude Longitude Course Direction KTS MPH feet Rate Location/Type
11:12AM 41.9667 -87.9833 270° West 191 220 2,100  Level Chicago TRACON
11:13AM 41.9667 -88.0667 270° West 257 296 3,900 2,340 Climbing Chicago TRACON
11:14AM 41.9556 -88.1872 263° West 276 318 7,300 2,640 Climbing Chicago Center
11:15AM 41.9667 -88.4928 270° West  Level FlightAware Approximate
11:15AM 41.9486 -88.2847 265° West 268 308 9,800  Level Chicago Center
11:16AM 41.9668 -88.6409 270° West  Level FlightAware Approximate
11:16AM 41.9553 -88.3853 275° West 279 321 12,300  Level Chicago Center
11:17AM 41.9667 -88.7891 270° West  Level FlightAware Approximate
11:17AM 41.9753 -88.4853 285° West 279 321 14,200  Level Chicago Center
11:18AM 41.9953 -88.5925 284° West 293 337 15,200 1,320 Climbing Chicago Center
11:19AM 42.0161 -88.7117 283° West 322 371 17,000 1,560 Climbing Chicago Center
11:20AM 42.0353 -88.8350 282° West 338 389 18,400 1,740 Climbing Chicago Center
11:21AM 42.0397 -88.9906 272° West 350 403 20,600 1,800 Climbing Chicago Center
11:22AM 42.0461 -89.1197 274° West 349 402 22,200 1,320 Climbing Chicago Center
11:23AM 42.0508 -89.2525 273° West 357 411 23,400 1,080 Climbing Chicago Center
11:24AM 42.0553 -89.3908 273° West 368 423 24,500 1,320 Climbing Chicago Center
11:25AM 42.0694 -89.5328 278° West 371 427 26,200 1,440 Climbing Chicago Center
11:26AM 42.0875 -89.6678 280° West 365 420 27,500 1,080 Climbing Chicago Center
11:27AM 42.1031 -89.8011 279° West 363 418 28,500 900 Climbing Chicago Center
11:28AM 42.1178 -89.9347 278° West 365 420 29,400 660 Climbing Chicago Center
11:29AM 42.1322 -90.0728 278° West 374 430 29,900 480 Climbing Chicago Center
11:30AM 42.1492 -90.2428 278° West 384 442 30,500 480 Climbing Chicago Center
11:31AM 42.1661 -90.3872 279° West 391 450 31,000 600 Climbing Chicago Center
11:32AM 42.1847 -90.5328 280° West 396 456 31,800 780 Climbing Chicago Center
11:33AM 42.1889 -90.6778 272° West 390 449 32,600 840 Climbing Chicago Center
11:34AM 42.1917 -90.8222 272° West 388 447 33,600 660 Climbing Chicago Center
11:36AM 42.2186 -90.9594 285° West 394 453 34,000 180 Climbing Chicago Center
11:37AM 42.2711 -91.0925 298° West 402 463 34,000  Level Chicago Center
11:38AM 42.3331 -91.2647 296° West 423 487 34,000  Level Chicago Center
11:39AM 42.3883 -91.4094 297° West 430 495 34,000  Level Chicago Center
11:40AM 42.4444 -91.5558 297° West 435 501 34,000  Level Chicago Center
11:41AM 42.5000 -91.7058 297° West 441 507 34,000  Level Chicago Center
11:42AM 42.5561 -91.8519 298° West 438 504 34,000  Level Chicago Center
11:43AM 42.6097 -91.9989 296° West 433 498 34,000  Level Chicago Center
11:44AM 42.6644 -92.1458 297° West 436 502 34,000  Level Chicago Center
11:45AM 42.7194 -92.2956 297° West 442 509 34,000  Level Chicago Center
11:46AM 42.7753 -92.4456 297° West 446 513 34,000  Level Chicago Center
11:47AM 42.8406 -92.6261 296° West 446 513 34,000  Level Chicago Center
11:48AM 42.8961 -92.7792 296° West 443 510 34,000  Level Chicago Center
11:49AM 42.9281 -92.8656 297° West 441 507 34,000  Level Minneapolis Center
11:50AM 42.9914 -93.0442 296° West 439 505 34,000  Level Minneapolis Center
11:51AM 43.0442 -93.1922 296° West 437 503 34,000  Level Minneapolis Center
11:52AM 43.0947 -93.3419 295° West 436 502 34,000  Level Minneapolis Center
11:53AM 43.1233 -93.5031 284° West 437 503 34,000  Level Minneapolis Center
11:54AM 43.1456 -93.6317 283° West 437 503 34,000  Level Minneapolis Center
11:55AM 43.1861 -93.8569 284° West 439 505 34,000  Level Minneapolis Center
11:56AM 43.2133 -94.0197 283° West 441 507 34,000  Level Minneapolis Center
11:57AM 43.2408 -94.1803 283° West 437 503 34,000  Level Minneapolis Center
11:58AM 43.2686 -94.3425 283° West 440 506 34,000  Level Minneapolis Center
11:59AM 43.2958 -94.5044 283° West 437 503 34,000  Level Minneapolis Center
12:00PM 43.3236 -94.6686 283° West 441 507 34,000  Level Minneapolis Center
12:01PM 43.3506 -94.8308 283° West 438 504 34,000  Level Minneapolis Center
12:02PM 43.3822 -95.0264 283° West 438 504 34,000  Level Minneapolis Center
12:03PM 43.4081 -95.1900 282° West 437 503 34,000  Level Minneapolis Center
12:04PM 43.4333 -95.3525 282° West 437 503 34,000  Level Minneapolis Center
12:05PM 43.4589 -95.5147 282° West 436 502 34,000  Level Minneapolis Center
12:06PM 43.4844 -95.6767 282° West 433 498 34,000  Level Minneapolis Center
12:07PM 43.5092 -95.8386 282° West 432 497 34,000  Level Minneapolis Center
12:08PM 43.5342 -96.0008 282° West 432 497 34,000  Level Minneapolis Center
12:09PM 43.5589 -96.1631 282° West 432 497 34,000  Level Minneapolis Center
12:10PM 43.5833 -96.3269 282° West 434 499 34,000  Level Minneapolis Center
12:11PM 43.6119 -96.5228 281° West 434 499 34,000  Level Minneapolis Center
12:12PM 43.6358 -96.6875 281° West 437 503 34,000  Level Minneapolis Center
12:13PM 43.6558 -96.8511 280° West 432 497 34,000  Level Minneapolis Center
12:14PM 43.6678 -97.0161 276° West 431 496 34,000  Level Minneapolis Center
12:15PM 43.6808 -97.1808 276° West 431 496 34,000  Level Minneapolis Center
12:16PM 43.6925 -97.3467 276° West 432 497 34,000  Level Minneapolis Center
12:17PM 43.7050 -97.5103 276° West 429 494 34,000  Level Minneapolis Center
12:18PM 43.7169 -97.6744 276° West 429 494 34,000  Level Minneapolis Center
12:19PM 43.7317 -97.8719 276° West 431 496 34,000  Level Minneapolis Center
12:20PM 43.7433 -98.0375 276° West 432 497 34,000  Level Minneapolis Center
12:21PM 43.7542 -98.2031 275° West 433 498 34,000  Level Minneapolis Center
12:22PM 43.7661 -98.3703 276° West 435 501 34,000  Level Minneapolis Center
12:23PM 43.7767 -98.5350 275° West 433 498 34,000  Level Minneapolis Center
12:25PM 43.7869 -98.6983 275° West 430 495 34,000  Level Minneapolis Center
12:26PM 43.7969 -98.8608 275° West 426 490 34,000  Level Minneapolis Center
12:27PM 43.8072 -99.0264 275° West 429 494 34,000  Level Minneapolis Center
12:28PM 43.8181 -99.2228 274° West 428 493 34,000  Level Minneapolis Center
12:29PM 43.8281 -99.3847 275° West 423 487 34,000  Level Minneapolis Center
12:30PM 43.8358 -99.5461 274° West 420 483 34,000  Level Minneapolis Center
12:31PM 43.8450 -99.7067 275° West 419 482 34,000  Level Minneapolis Center
12:32PM 43.8542 -99.8686 275° West 420 483 34,000  Level Minneapolis Center
12:33PM 43.8625 -100.0303 274° West 419 482 34,000  Level Minneapolis Center
12:34PM 43.8706 -100.1903 274° West 418 481 34,000  Level Minneapolis Center
12:35PM 43.8781 -100.3506 274° West 417 480 34,000  Level Minneapolis Center
12:36PM 43.8856 -100.5122 274° West 419 482 34,000  Level Minneapolis Center
12:37PM 43.8947 -100.7061 274° West 419 482 34,000  Level Minneapolis Center
12:38PM 43.9014 -100.8664 273° West 418 481 34,000  Level Minneapolis Center
12:39PM 43.9086 -101.0267 274° West 416 479 34,000  Level Minneapolis Center
12:40PM 43.9161 -101.1869 274° West 415 478 34,000  Level Minneapolis Center
12:41PM 43.9214 -101.3447 273° West 413 475 34,000  Level Minneapolis Center
12:42PM 43.9261 -101.5025 272° West 411 473 34,000  Level Minneapolis Center
12:43PM 43.9319 -101.6606 273° West 410 472 34,000  Level Minneapolis Center
12:44PM 43.9372 -101.7867 273° West 406 467 34,000  Level Denver Center
12:45PM 43.9403 -101.9425 272° West 405 466 34,000  Level Denver Center
12:46PM 43.9458 -102.1014 273° West 409 471 34,000  Level Denver Center
12:47PM 43.9533 -102.2614 274° West 412 474 34,000  Level Denver Center
12:48PM 43.9600 -102.4200 273° West 412 474 34,000  Level Denver Center
12:49PM 43.9653 -102.5800 273° West 414 476 34,000  Level Denver Center
12:50PM 43.9700 -102.7683 272° West 411 473 34,000  Level Denver Center
12:51PM 43.9747 -102.9236 272° West 412 474 34,000  Level Denver Center
12:52PM 43.9794 -103.0750 273° West 411 473 34,000  Level Denver Center
12:53PM 43.9817 -103.2497 271° West 409 471 34,000  Level Denver Center
12:54PM 43.9850 -103.4000 272° West 409 471 34,000  Level Denver Center
12:55PM 43.9878 -103.5728 271° West 406 467 34,000  Level Denver Center
12:56PM 43.9903 -103.7239 271° West 409 471 34,000  Level Denver Center
12:57PM 43.9928 -103.8978 271° West 407 468 34,000  Level Denver Center
12:58PM 43.9947 -104.0481 271° West 408 470 34,000  Level Denver Center
12:59PM 43.9958 -104.2236 271° West 409 471 34,000  Level Denver Center
01:00PM 43.9975 -104.3739 271° West 409 471 34,000  Level Denver Center
01:01PM 43.9994 -104.5503 271° West 410 472 34,000  Level Denver Center
01:02PM 44.0014 -104.7022 271° West 412 474 34,000  Level Denver Center
01:03PM 44.0019 -104.8794 270° West 412 474 34,000  Level Denver Center
01:04PM 44.0028 -105.0319 270° West 413 475 34,000  Level Denver Center
01:05PM 44.0039 -105.2069 271° West 409 471 34,000  Level Denver Center
01:06PM 44.0044 -105.3581 270° West 410 472 34,000  Level Denver Center
01:07PM 44.0033 -105.5369 270° West 415 478 34,000  Level Denver Center
01:08PM 44.0036 -105.6869 270° West 411 473 34,000  Level Denver Center
01:09PM 44.0036 -105.8392 270° West 412 474 34,000  Level Denver Center
01:11PM 44.0028 -106.0175 270° West 414 476 34,000  Level Denver Center
01:12PM 44.0019 -106.1692 270° West 413 475 34,000  Level Denver Center
01:12PM 44.0014 -106.2622 270° West 417 480 34,000  Level Salt Lake Center
01:13PM 43.9992 -106.4181 269° West 420 483 34,000  Level Salt Lake Center
01:14PM 44.0028 -106.5019 273° West 414 476 34,000  Level Denver Center
01:15PM 44.0094 -106.6806 273° West 416 479 34,000  Level Denver Center
01:15PM 44.0117 -106.7489 273° West 417 480 34,000  Level Salt Lake Center
01:16PM 44.0172 -106.9019 273° West 415 478 34,000  Level Salt Lake Center
01:17PM 44.0214 -107.0044 273° West 414 476 34,000  Level Denver Center
01:18PM 44.0267 -107.1572 273° West 415 478 34,000  Level Denver Center
01:18PM 44.0283 -107.2339 272° West 414 476 34,000  Level Salt Lake Center
01:19PM 44.0336 -107.3867 273° West 414 476 34,000  Level Salt Lake Center
01:20PM 44.0392 -107.5667 273° West 416 479 34,000  Level Salt Lake Center
01:21PM 44.0442 -107.7217 273° West 418 481 34,000  Level Salt Lake Center
01:22PM 44.0486 -107.9017 272° West 416 479 34,000  Level Salt Lake Center
01:23PM 44.0528 -108.0572 272° West 419 482 34,000  Level Salt Lake Center
01:24PM 44.0569 -108.2131 272° West 419 482 34,000  Level Salt Lake Center
01:25PM 44.0628 -108.3961 273° West 423 487 34,000  Level Salt Lake Center
01:26PM 44.0672 -108.5517 272° West 422 486 34,000  Level Salt Lake Center
01:27PM 44.0703 -108.7311 271° West 417 480 34,000  Level Salt Lake Center
01:28PM 44.0731 -108.8839 272° West 415 478 34,000  Level Salt Lake Center
01:29PM 44.0767 -109.0361 272° West 413 475 34,000  Level Salt Lake Center
01:30PM 44.0786 -109.2144 271° West 413 475 34,000  Level Salt Lake Center
01:31PM 44.0800 -109.3672 271° West 413 475 34,000  Level Salt Lake Center
01:33PM 44.0833 -109.5219 272° West 410 472 34,000  Level Salt Lake Center
01:34PM 44.0856 -109.7000 271° West 413 475 34,000  Level Salt Lake Center
01:35PM 44.0864 -109.8525 270° West 412 474 34,000  Level Salt Lake Center
01:36PM 44.0894 -110.0311 271° West 414 476 34,000  Level Salt Lake Center
01:37PM 44.0908 -110.1819 271° West 409 471 34,000  Level Salt Lake Center
01:38PM 44.0917 -110.3339 270° West 410 472 34,000  Level Salt Lake Center
01:39PM 44.0928 -110.5103 271° West 410 472 34,000  Level Salt Lake Center
01:40PM 44.0931 -110.6631 270° West 411 473 34,000  Level Salt Lake Center
01:41PM 44.0936 -110.8381 270° West 405 466 34,000  Level Salt Lake Center
01:42PM 44.0947 -110.9883 271° West 404 465 34,000  Level Salt Lake Center
01:43PM 44.0933 -111.1636 269° West 404 465 34,000  Level Salt Lake Center
01:44PM 44.0942 -111.3119 270° West 400 460 34,000  Level Salt Lake Center
01:45PM 44.0942 -111.4603 270° West 400 460 34,000  Level Salt Lake Center
01:46PM 44.0936 -111.6333 270° West 399 459 34,000  Level Salt Lake Center
01:47PM 44.0928 -111.7814 270° West 398 458 34,000  Level Salt Lake Center
01:48PM 44.0911 -111.9542 269° West 398 458 34,000  Level Salt Lake Center
01:49PM 44.0889 -112.1003 269° West 396 456 34,000  Level Salt Lake Center
01:50PM 44.0836 -112.2453 267° West 392 451 34,000  Level Salt Lake Center
01:51PM 44.0644 -112.4153 261° West 397 457 34,000  Level Salt Lake Center
01:52PM 44.0492 -112.5614 262° West 399 459 34,000  Level Salt Lake Center
01:53PM 44.0297 -112.7306 261° West 397 457 34,000  Level Salt Lake Center
01:54PM 44.0114 -112.8758 260° West 399 459 34,000  Level Salt Lake Center
01:55PM 43.9908 -113.0472 261° West 402 463 34,000  Level Salt Lake Center
01:56PM 43.9728 -113.1947 260° West 403 464 34,000  Level Salt Lake Center
01:57PM 43.9544 -113.3414 260° West 403 464 34,000  Level Salt Lake Center
01:58PM 43.9339 -113.5142 261° West 408 470 34,000  Level Salt Lake Center
01:59PM 43.9144 -113.6644 260° West 408 470 34,000  Level Salt Lake Center
02:00PM 43.8933 -113.8372 260° West 409 471 34,000 -480 Level Salt Lake Center
02:01PM 43.8747 -113.9806 260° West 405 466 33,100 -1,260 Descending Salt Lake Center
02:02PM 43.8522 -114.1522 260° West 407 468 31,500 -1,500 Descending Salt Lake Center
02:03PM 43.8319 -114.3000 259° West 408 470 30,100 -1,560 Descending Salt Lake Center
02:04PM 43.8097 -114.4731 260° West 408 470 28,400 -1,680 Descending Salt Lake Center
02:05PM 43.7908 -114.6175 260° West 399 459 26,700 -1,680 Descending Salt Lake Center
02:06PM 43.7717 -114.7589 259° West 392 451 25,000 -1,860 Descending Salt Lake Center
02:07PM 43.7492 -114.9192 259° West 382 440 23,000 -1,800 Descending Salt Lake Center
02:09PM 43.7306 -115.0536 259° West 375 432 21,400 -1,920 Descending Salt Lake Center
02:10PM 43.7089 -115.2100 259° West 371 427 19,100 -2,040 Descending Salt Lake Center
02:11PM 43.6911 -115.3414 259° West 365 420 17,300 -1,860 Descending Salt Lake Center
02:12PM 43.6719 -115.4833 259° West 353 406 15,300 -1,860 Descending Salt Lake Center
02:13PM 43.6525 -115.6169 259° West 343 395 13,500 -1,800 Descending Salt Lake Center
02:14PM 43.6178 -115.7358 248° West 321 369 11,600 -1,620 Descending Salt Lake Center
02:15PM 43.5689 -115.8317 235° Southwest 291 335 10,300 -1,500 Descending Salt Lake Center
02:16PM 43.5283 -115.9092 234° Southwest 262 302 8,600 -1,680 Descending Salt Lake Center
02:17PM 43.4939 -115.9869 239° Southwest 227 261 6,900 -1,680 Descending Salt Lake Center